Time;durP1;ratioP1;P1;durP2;ratioP2;P2;SDS_P1;SDS_P2;PMS_P1;PMS_P2;Temp;Humidity;BMP_temperature;BMP_pressure;BME280_temperature;BME280_humidity;BME280_pressure;Samples;Min_cycle;Max_cycle;Signal;HPM_P1;HPM_P2
2022/09/19 00:00:27;;;;;;;83.13;51.75;;;10.20;99.90;;;;;;5041869;28;20750;-87
2022/09/19 00:02:59;;;;;;;78.95;33.22;;;10.20;99.90;;;;;;5059683;28;20152;-87
2022/09/19 00:05:45;;;;;;;79.03;39.13;;;10.20;99.90;;;;;;5059475;28;20152;-87
2022/09/19 00:08:12;;;;;;;82.72;32.95;;;10.20;99.90;;;;;;5058703;28;20201;-87
2022/09/19 00:11:12;;;;;;;80.40;37.85;;;10.20;99.90;;;;;;5059961;28;20173;-87
2022/09/19 00:13:48;;;;;;;86.15;46.70;;;10.20;99.90;;;;;;5040737;28;20200;-87
2022/09/19 00:16:23;;;;;;;79.60;35.33;;;10.20;99.90;;;;;;5040236;28;20156;-86
2022/09/19 00:19:00;;;;;;;77.95;38.28;;;10.20;99.90;;;;;;5040979;28;20210;-87
2022/09/19 00:21:32;;;;;;;78.75;36.95;;;10.30;99.90;;;;;;5040250;28;20160;-86
2022/09/19 00:26:55;;;;;;;80.05;32.83;;;10.30;99.90;;;;;;5058607;28;20226;-86
2022/09/19 00:29:21;;;;;;;76.60;39.42;;;10.30;99.90;;;;;;5040735;28;20188;-86
2022/09/19 00:31:47;;;;;;;76.80;34.95;;;10.30;99.90;;;;;;5040365;28;20165;-86
2022/09/19 00:34:15;;;;;;;77.53;36.20;;;10.30;99.90;;;;;;5058556;28;20157;-87
2022/09/19 00:36:42;;;;;;;77.88;38.67;;;10.30;99.90;;;;;;5041052;28;20405;-87
2022/09/19 00:39:09;;;;;;;80.15;36.75;;;10.30;99.90;;;;;;5040479;28;20192;-86
2022/09/19 00:41:36;;;;;;;85.93;53.42;;;10.40;99.90;;;;;;5060332;28;20161;-87
2022/09/19 00:44:25;;;;;;;87.35;32.45;;;10.40;99.90;;;;;;5057373;28;20161;-87
2022/09/19 00:46:57;;;;;;;86.22;51.90;;;10.40;99.90;;;;;;4989752;28;20177;-86
2022/09/19 00:49:25;;;;;;;81.47;33.38;;;10.30;99.90;;;;;;5039270;28;20188;-86
2022/09/19 00:51:57;;;;;;;81.13;43.25;;;10.40;99.90;;;;;;5057133;28;20239;-87
2022/09/19 00:54:28;;;;;;;79.40;35.28;;;10.40;99.90;;;;;;5056948;28;20214;-86
2022/09/19 00:56:56;;;;;;;81.85;34.72;;;10.40;99.90;;;;;;5038535;28;20583;-86
2022/09/19 00:59:25;;;;;;;79.20;35.63;;;10.30;99.90;;;;;;5056272;28;20165;-87
2022/09/19 01:01:56;;;;;;;80.38;36.55;;;10.30;99.90;;;;;;5038038;28;20199;-87
2022/09/19 01:04:41;;;;;;;77.18;29.05;;;10.30;99.90;;;;;;5056152;28;20152;-87
2022/09/19 01:07:41;;;;;;;77.07;34.95;;;10.30;99.90;;;;;;5037823;28;20207;-87
2022/09/19 01:10:40;;;;;;;80.97;38.83;;;10.30;99.90;;;;;;5038729;28;20174;-87
2022/09/19 01:13:20;;;;;;;86.68;29.00;;;10.30;99.90;;;;;;5055926;28;20184;-87
2022/09/19 01:15:54;;;;;;;78.78;35.80;;;10.30;99.90;;;;;;5056035;28;20145;-87
2022/09/19 01:19:02;;;;;;;78.32;36.85;;;10.30;99.90;;;;;;5037493;28;20196;-86
2022/09/19 01:21:40;;;;;;;79.72;33.35;;;10.30;99.90;;;;;;5055576;28;20228;-87
2022/09/19 01:24:43;;;;;;;79.28;34.65;;;10.30;99.90;;;;;;5055938;28;20198;-86
2022/09/19 01:27:23;;;;;;;78.82;34.05;;;10.30;99.90;;;;;;5036957;28;20801;-86
2022/09/19 01:30:16;;;;;;;81.35;33.88;;;10.40;99.90;;;;;;5037366;28;20253;-86
2022/09/19 01:32:58;;;;;;;81.22;35.72;;;10.40;99.90;;;;;;5051145;28;20212;-87
2022/09/19 01:35:28;;;;;;;81.30;35.75;;;10.40;99.90;;;;;;5037364;28;20628;-86
2022/09/19 01:38:07;;;;;;;79.57;42.78;;;10.40;99.90;;;;;;5037483;28;20193;-86
2022/09/19 01:40:35;;;;;;;77.50;35.72;;;10.30;99.90;;;;;;5036456;28;20156;-86
2022/09/19 01:43:01;;;;;;;79.18;33.03;;;10.30;99.90;;;;;;5054553;28;20242;-86
2022/09/19 01:45:36;;;;;;;85.10;40.17;;;10.40;99.90;;;;;;5054429;28;20169;-86
2022/09/19 01:48:15;;;;;;;81.07;37.45;;;10.30;99.90;;;;;;5054514;28;20926;-86
2022/09/19 01:51:02;;;;;;;80.45;39.17;;;10.40;99.90;;;;;;5037926;28;20519;-87
2022/09/19 01:56:53;;;;;;;80.55;30.23;;;10.40;99.90;;;;;;5054756;28;20691;-87
2022/09/19 01:59:50;;;;;;;83.72;27.00;;;10.40;99.90;;;;;;5035740;28;20161;-87
2022/09/19 02:02:33;;;;;;;73.40;23.73;;;10.40;99.90;;;;;;5036042;28;20659;-87
2022/09/19 02:05:27;;;;;;;81.15;30.42;;;10.40;99.90;;;;;;5054418;28;20313;-87
2022/09/19 02:08:01;;;;;;;79.28;24.73;;;10.30;99.90;;;;;;5053870;28;20180;-87
2022/09/19 02:10:36;;;;;;;84.55;33.03;;;10.30;99.90;;;;;;5054469;28;20180;-87
2022/09/19 02:13:11;;;;;;;80.72;33.05;;;10.30;99.90;;;;;;5054323;28;20179;-86
2022/09/19 02:15:46;;;;;;;85.97;33.95;;;10.30;99.90;;;;;;5036272;28;20184;-86
2022/09/19 02:18:37;;;;;;;78.95;31.00;;;10.30;99.90;;;;;;5035907;28;20693;-87
2022/09/19 02:21:10;;;;;;;79.35;32.20;;;10.20;99.90;;;;;;5054075;28;20160;-86
2022/09/19 02:23:47;;;;;;;81.70;34.88;;;10.20;99.90;;;;;;5053739;28;20151;-87
2022/09/19 02:26:38;;;;;;;78.78;26.75;;;10.20;99.90;;;;;;5053472;28;20623;-86
2022/09/19 02:29:12;;;;;;;73.15;24.35;;;10.20;99.90;;;;;;5035613;28;20224;-87
2022/09/19 02:31:46;;;;;;;74.82;23.95;;;10.20;99.90;;;;;;5053671;28;20168;-87
2022/09/19 02:34:12;;;;;;;77.78;19.95;;;10.30;99.90;;;;;;5053577;28;20184;-87
2022/09/19 02:36:55;;;;;;;76.40;21.10;;;10.20;99.90;;;;;;5053800;28;20176;-86
2022/09/19 02:39:45;;;;;;;74.75;25.80;;;10.20;99.90;;;;;;5035595;28;20595;-87
2022/09/19 02:42:30;;;;;;;81.70;21.80;;;10.30;99.90;;;;;;5035554;28;20159;-87
2022/09/19 02:45:25;;;;;;;78.45;23.25;;;10.20;99.90;;;;;;5035436;28;20179;-87
2022/09/19 02:48:04;;;;;;;78.43;28.27;;;10.20;99.90;;;;;;5053728;28;20192;-87
2022/09/19 02:50:59;;;;;;;74.55;25.27;;;10.20;99.90;;;;;;5053388;28;20156;-87
2022/09/19 02:53:33;;;;;;;75.40;22.30;;;10.20;99.90;;;;;;5036792;28;20195;-87
2022/09/19 02:56:02;;;;;;;77.40;21.92;;;10.20;99.90;;;;;;5053920;28;20256;-87
2022/09/19 02:58:33;;;;;;;78.82;22.10;;;10.20;99.90;;;;;;5054186;28;20184;-87
2022/09/19 03:01:08;;;;;;;75.88;17.45;;;10.20;99.90;;;;;;5036524;28;20156;-86
2022/09/19 03:04:14;;;;;;;73.25;21.90;;;10.20;99.90;;;;;;5053551;28;20149;-87
2022/09/19 03:06:49;;;;;;;77.28;15.48;;;10.20;99.90;;;;;;5035715;28;20165;-88
2022/09/19 03:09:29;;;;;;;72.68;19.17;;;10.20;99.90;;;;;;5035383;28;20199;-86
2022/09/19 03:12:35;;;;;;;75.53;19.35;;;10.20;99.90;;;;;;5035610;28;20723;-87
2022/09/19 03:15:09;;;;;;;72.05;15.48;;;10.20;99.90;;;;;;5038911;28;20654;-87
2022/09/19 03:18:01;;;;;;;74.10;17.13;;;10.20;99.90;;;;;;5038583;28;20185;-88
2022/09/19 03:20:39;;;;;;;71.47;18.48;;;10.20;99.90;;;;;;5056839;28;20235;-87
2022/09/19 03:23:11;;;;;;;76.82;17.75;;;10.20;99.90;;;;;;5056611;28;20244;-87
2022/09/19 03:25:42;;;;;;;77.63;18.52;;;10.20;99.90;;;;;;5038909;28;20168;-87
2022/09/19 03:28:08;;;;;;;77.78;17.65;;;10.10;99.90;;;;;;5038492;28;20208;-87
2022/09/19 03:30:34;;;;;;;76.00;21.95;;;10.10;99.90;;;;;;5056652;28;20238;-87
2022/09/19 03:33:00;;;;;;;77.47;19.80;;;10.10;99.90;;;;;;5056228;28;20188;-87
2022/09/19 03:35:25;;;;;;;76.00;15.93;;;10.10;99.90;;;;;;5038343;28;20643;-87
2022/09/19 03:37:51;;;;;;;75.33;16.73;;;10.10;99.90;;;;;;5056510;28;20234;-87
2022/09/19 03:40:22;;;;;;;98.03;20.53;;;10.10;99.90;;;;;;5038428;28;20195;-87
2022/09/19 03:42:52;;;;;;;76.95;17.08;;;10.10;99.90;;;;;;5038208;28;20164;-87
2022/09/19 03:45:19;;;;;;;79.75;20.52;;;10.10;99.90;;;;;;5038311;28;20168;-87
2022/09/19 03:47:46;;;;;;;74.38;19.20;;;10.10;99.90;;;;;;5038033;28;20189;-87
2022/09/19 03:50:15;;;;;;;76.93;19.48;;;10.20;99.90;;;;;;5056128;28;20168;-86
2022/09/19 03:52:50;;;;;;;78.60;17.80;;;10.20;99.90;;;;;;5038010;28;20339;-87
2022/09/19 03:55:19;;;;;;;75.18;18.33;;;10.20;99.90;;;;;;5056015;28;20171;-87
2022/09/19 03:57:47;;;;;;;72.05;19.10;;;10.20;99.90;;;;;;5056551;28;20187;-87
2022/09/19 04:00:16;;;;;;;74.28;19.88;;;10.20;99.90;;;;;;5037993;28;20175;-87
2022/09/19 04:02:42;;;;;;;81.07;16.65;;;10.20;99.90;;;;;;5055788;28;20161;-87
2022/09/19 04:05:14;;;;;;;75.20;16.52;;;10.20;99.90;;;;;;5037927;28;20587;-87
2022/09/19 04:07:42;;;;;;;80.13;18.40;;;10.20;99.90;;;;;;5037768;28;20216;-87
2022/09/19 04:10:08;;;;;;;77.25;15.50;;;10.20;99.90;;;;;;5055805;28;20164;-86
2022/09/19 04:12:33;;;;;;;75.43;18.08;;;10.20;99.90;;;;;;5055598;28;20555;-87
2022/09/19 04:15:00;;;;;;;69.90;13.87;;;10.20;99.90;;;;;;5037702;28;20169;-87
2022/09/19 04:17:27;;;;;;;74.10;20.10;;;10.30;99.90;;;;;;5055873;28;20188;-86
2022/09/19 04:19:53;;;;;;;74.95;25.33;;;10.30;99.90;;;;;;5037867;28;20168;-87
2022/09/19 04:22:21;;;;;;;76.55;20.65;;;10.20;99.90;;;;;;5055070;28;20179;-87
2022/09/19 04:24:48;;;;;;;76.35;21.38;;;10.20;99.90;;;;;;5037867;28;20169;-87
2022/09/19 04:27:13;;;;;;;81.70;18.00;;;10.30;99.90;;;;;;5055729;28;20199;-87
2022/09/19 04:29:43;;;;;;;71.87;18.87;;;10.30;99.90;;;;;;5055706;28;20176;-87
2022/09/19 04:32:18;;;;;;;78.20;15.98;;;10.30;99.90;;;;;;5055671;28;20454;-87
2022/09/19 04:34:44;;;;;;;78.07;16.88;;;10.30;99.90;;;;;;5056764;28;20510;-87
2022/09/19 04:37:10;;;;;;;76.50;15.23;;;10.30;99.90;;;;;;5037859;28;20579;-86
2022/09/19 04:39:36;;;;;;;75.65;16.55;;;10.40;99.90;;;;;;5055782;28;20175;-86
2022/09/19 04:42:02;;;;;;;74.40;14.83;;;10.30;99.90;;;;;;5038367;28;20161;-87
2022/09/19 04:44:29;;;;;;;71.10;13.50;;;10.30;99.90;;;;;;5055359;28;20159;-87
2022/09/19 04:47:06;;;;;;;76.65;18.52;;;10.30;99.90;;;;;;5055758;28;20157;-87
2022/09/19 04:49:39;;;;;;;79.70;18.92;;;10.30;99.90;;;;;;5060758;22;20682;-88
2022/09/19 04:52:06;;;;;;;79.95;18.85;;;10.30;99.90;;;;;;5078071;28;20152;-87
2022/09/19 04:54:37;;;;;;;78.97;20.70;;;10.30;99.90;;;;;;5078029;28;20190;-88
2022/09/19 04:57:05;;;;;;;81.00;16.98;;;10.30;99.90;;;;;;5057760;28;20164;-88
2022/09/19 04:59:35;;;;;;;78.70;16.35;;;10.30;99.90;;;;;;5058489;28;20172;-87
2022/09/19 05:02:02;;;;;;;75.22;18.55;;;10.30;99.90;;;;;;5039381;28;20513;-88
2022/09/19 05:04:28;;;;;;;78.60;14.88;;;10.30;99.90;;;;;;5058056;28;20215;-88
2022/09/19 05:06:54;;;;;;;78.27;18.97;;;10.30;99.90;;;;;;5058292;28;20161;-87
2022/09/19 05:09:24;;;;;;;72.30;15.43;;;10.40;99.90;;;;;;5040931;28;20415;-87
2022/09/19 05:11:50;;;;;;;77.78;18.98;;;10.30;99.90;;;;;;5058317;28;20474;-87
2022/09/19 05:14:16;;;;;;;72.10;15.80;;;10.30;99.90;;;;;;5057936;28;20172;-87
2022/09/19 05:16:42;;;;;;;70.32;14.70;;;10.30;99.90;;;;;;5057765;28;20199;-87
2022/09/19 05:19:08;;;;;;;84.30;15.60;;;10.30;99.90;;;;;;5058231;28;20181;-88
2022/09/19 05:21:36;;;;;;;79.05;18.50;;;10.30;99.90;;;;;;5056153;28;20514;-87
2022/09/19 05:24:02;;;;;;;74.90;16.35;;;10.30;99.90;;;;;;5059154;28;20161;-87
2022/09/19 05:26:28;;;;;;;74.73;16.10;;;10.30;99.90;;;;;;5059295;28;20176;-87
2022/09/19 05:28:54;;;;;;;75.43;15.93;;;10.40;99.90;;;;;;5059784;28;20423;-87
2022/09/19 05:31:20;;;;;;;77.93;17.77;;;10.40;99.90;;;;;;5041564;28;20649;-87
2022/09/19 05:33:46;;;;;;;86.77;21.90;;;10.30;99.90;;;;;;5058967;28;20246;-87
2022/09/19 05:36:13;;;;;;;73.55;14.00;;;10.40;99.90;;;;;;5041652;28;20407;-87
2022/09/19 05:38:39;;;;;;;77.60;16.17;;;10.40;99.90;;;;;;5057835;28;20191;-87
2022/09/19 05:41:13;;;;;;;75.47;14.07;;;10.40;99.90;;;;;;5058948;28;20158;-87
2022/09/19 05:43:39;;;;;;;82.65;19.10;;;10.40;99.90;;;;;;5058793;28;20156;-86
2022/09/19 05:46:05;;;;;;;77.43;17.30;;;10.50;99.90;;;;;;5040899;28;20583;-87
2022/09/19 05:48:31;;;;;;;77.23;17.13;;;10.40;99.90;;;;;;5058394;28;20793;-87
2022/09/19 05:50:56;;;;;;;83.37;15.33;;;10.50;99.90;;;;;;5058255;28;20176;-87
2022/09/19 05:56:08;;;;;;;74.22;17.17;;;10.60;99.90;;;;;;5058629;28;20171;-87
2022/09/19 05:58:35;;;;;;;77.45;16.05;;;10.60;99.90;;;;;;5057750;28;20176;-87
2022/09/19 06:01:09;;;;;;;78.20;15.73;;;10.60;99.90;;;;;;5059098;28;20184;-87
2022/09/19 06:03:35;;;;;;;75.25;15.85;;;10.70;99.90;;;;;;5057606;28;20545;-87
2022/09/19 06:06:05;;;;;;;75.90;16.47;;;10.70;99.90;;;;;;5039314;28;20165;-87
2022/09/19 06:08:30;;;;;;;76.95;14.27;;;10.80;99.90;;;;;;5056577;28;20435;-87
2022/09/19 06:11:00;;;;;;;82.10;14.97;;;10.80;99.90;;;;;;5040182;28;20171;-87
2022/09/19 06:14:13;;;;;;;72.82;14.45;;;10.80;99.90;;;;;;5039316;28;20259;-87
2022/09/19 06:16:11;;;;;;;74.57;14.35;;;10.90;99.90;;;;;;5056959;28;20192;-87
2022/09/19 06:18:37;;;;;;;85.30;17.73;;;10.90;99.90;;;;;;5057590;28;20180;-87
2022/09/19 06:21:02;;;;;;;82.68;21.20;;;11.00;99.90;;;;;;5039611;28;20408;-86
2022/09/19 06:23:28;;;;;;;82.20;25.40;;;11.00;99.90;;;;;;5056629;28;20470;-87
2022/09/19 06:25:53;;;;;;;78.93;27.27;;;11.10;99.90;;;;;;5057372;28;20160;-87
2022/09/19 06:28:19;;;;;;;77.63;25.33;;;11.10;99.90;;;;;;5039201;28;20184;-86
2022/09/19 06:30:45;;;;;;;78.27;32.93;;;11.10;99.90;;;;;;5058111;28;20614;-87
2022/09/19 06:33:11;;;;;;;82.20;32.93;;;11.20;99.90;;;;;;5056874;28;20727;-87
2022/09/19 06:35:36;;;;;;;81.40;34.30;;;11.30;99.90;;;;;;5058496;28;20192;-86
2022/09/19 06:38:05;;;;;;;79.73;33.40;;;11.40;99.90;;;;;;5055467;28;20675;-86
2022/09/19 06:40:31;;;;;;;78.80;32.63;;;11.40;99.90;;;;;;5038555;28;20489;-86
2022/09/19 06:43:01;;;;;;;78.73;28.00;;;11.40;99.90;;;;;;5056988;28;20683;-86
2022/09/19 06:45:37;;;;;;;83.78;27.13;;;11.50;99.90;;;;;;5059641;28;20148;-86
2022/09/19 06:48:03;;;;;;;82.13;37.53;;;11.60;99.90;;;;;;5061163;28;20184;-86
2022/09/19 06:50:29;;;;;;;87.00;34.75;;;11.60;99.90;;;;;;5060588;28;20177;-86
2022/09/19 06:52:55;;;;;;;80.43;36.43;;;11.60;99.90;;;;;;5042509;28;20192;-86
2022/09/19 06:55:25;;;;;;;83.90;29.08;;;11.70;99.90;;;;;;5059836;28;20156;-86
2022/09/19 06:57:56;;;;;;;87.88;31.60;;;11.70;99.90;;;;;;5042187;28;20559;-86
2022/09/19 07:00:24;;;;;;;81.03;34.03;;;11.80;99.90;;;;;;5060248;28;20163;-86
2022/09/19 07:03:11;;;;;;;80.13;25.67;;;11.90;99.90;;;;;;5061082;28;20314;-84
2022/09/19 07:05:39;;;;;;;83.90;21.77;;;11.90;99.90;;;;;;5060718;28;20184;-86
2022/09/19 07:08:06;;;;;;;76.93;19.08;;;12.10;99.90;;;;;;5061203;28;20184;-86
2022/09/19 07:10:33;;;;;;;79.57;21.83;;;12.00;99.90;;;;;;5060687;28;20578;-87
2022/09/19 07:13:01;;;;;;;76.88;19.58;;;12.10;99.90;;;;;;5061196;28;20275;-86
2022/09/19 07:15:28;;;;;;;82.75;17.63;;;12.10;99.90;;;;;;5060914;28;20161;-86
2022/09/19 07:17:55;;;;;;;76.47;12.43;;;12.10;99.90;;;;;;5061525;28;20186;-86
2022/09/19 07:20:21;;;;;;;73.35;11.18;;;12.20;99.90;;;;;;5043447;28;20211;-86
2022/09/19 07:22:47;;;;;;;74.15;14.02;;;12.20;99.90;;;;;;5060741;28;20173;-86
2022/09/19 07:25:13;;;;;;;78.60;12.10;;;12.30;99.90;;;;;;5061138;28;20179;-86
2022/09/19 07:27:42;;;;;;;78.70;11.50;;;12.30;99.90;;;;;;5060909;28;20952;-86
2022/09/19 07:30:08;;;;;;;75.95;10.80;;;12.40;99.90;;;;;;5060543;28;20775;-86
2022/09/19 07:32:34;;;;;;;76.88;11.23;;;12.50;99.90;;;;;;5060892;28;20194;-87
2022/09/19 07:34:59;;;;;;;78.57;12.97;;;12.50;99.90;;;;;;5061022;28;20243;-86
2022/09/19 07:37:25;;;;;;;68.73;10.03;;;12.50;99.90;;;;;;5061498;28;20176;-87
2022/09/19 07:39:52;;;;;;;77.82;11.95;;;12.50;99.90;;;;;;5061422;28;20236;-87
2022/09/19 07:42:20;;;;;;;72.45;12.93;;;12.40;99.90;;;;;;5061158;28;20640;-87
2022/09/19 07:44:45;;;;;;;75.43;12.55;;;12.40;99.90;;;;;;5062347;28;20160;-87
2022/09/19 07:47:29;;;;;;;78.80;15.07;;;12.50;99.90;;;;;;5061310;28;20682;-87
2022/09/19 07:49:55;;;;;;;78.10;18.52;;;12.50;99.90;;;;;;5060973;28;20183;-87
2022/09/19 07:52:24;;;;;;;76.70;22.70;;;12.60;99.90;;;;;;5060589;28;20552;-86
2022/09/19 07:54:51;;;;;;;78.40;20.85;;;12.70;99.90;;;;;;5058981;28;20161;-86
2022/09/19 07:57:17;;;;;;;80.35;19.00;;;12.80;99.90;;;;;;5040809;28;20219;-86
2022/09/19 07:59:44;;;;;;;73.00;12.73;;;12.80;99.90;;;;;;5059729;28;20141;-87
2022/09/19 08:02:11;;;;;;;73.38;13.48;;;12.80;99.90;;;;;;5060259;28;20176;-86
2022/09/19 08:04:37;;;;;;;72.87;11.80;;;12.90;99.90;;;;;;5041734;28;20222;-86
2022/09/19 08:07:09;;;;;;;71.50;11.87;;;12.90;99.90;;;;;;5059824;28;20395;-86
2022/09/19 08:09:35;;;;;;;78.07;12.38;;;13.10;99.90;;;;;;5059993;28;20408;-86
2022/09/19 08:12:03;;;;;;;71.83;11.90;;;13.20;99.90;;;;;;5041814;28;20251;-86
2022/09/19 08:14:28;;;;;;;70.97;9.53;;;13.30;99.90;;;;;;5059396;28;20164;-87
2022/09/19 08:16:54;;;;;;;71.70;10.53;;;13.30;99.90;;;;;;5060325;28;20537;-87
2022/09/19 08:19:20;;;;;;;76.50;10.30;;;13.30;99.90;;;;;;5059246;28;20164;-87
2022/09/19 08:21:45;;;;;;;77.60;8.70;;;13.40;99.90;;;;;;5058688;28;20172;-87
2022/09/19 08:24:11;;;;;;;68.97;8.57;;;13.40;99.90;;;;;;5059893;28;20171;-87
2022/09/19 08:26:36;;;;;;;71.10;9.00;;;13.50;99.90;;;;;;5041843;28;20172;-86
2022/09/19 08:29:02;;;;;;;67.97;7.33;;;13.40;99.90;;;;;;5042126;28;20577;-87
2022/09/19 08:31:28;;;;;;;75.40;7.60;;;13.40;99.90;;;;;;5060098;28;20169;-86
2022/09/19 08:33:53;;;;;;;70.97;7.33;;;13.50;99.90;;;;;;5041497;28;20192;-86
2022/09/19 08:36:19;;;;;;;70.37;6.90;;;13.60;99.90;;;;;;5041952;28;20195;-87
2022/09/19 08:38:46;;;;;;;73.07;9.07;;;13.50;99.90;;;;;;5060012;28;20185;-87
2022/09/19 08:41:38;;;;;;;70.97;8.23;;;13.50;99.90;;;;;;5043675;28;20168;-86
2022/09/19 08:44:14;;;;;;;69.50;8.10;;;13.60;99.90;;;;;;5061164;28;20381;-87
2022/09/19 08:47:02;;;;;;;73.23;6.20;;;13.70;99.90;;;;;;5060720;28;20379;-86
2022/09/19 08:49:36;;;;;;;71.73;5.83;;;13.80;99.90;;;;;;5042601;28;20481;-86
2022/09/19 08:52:21;;;;;;;76.63;6.53;;;13.80;99.90;;;;;;5041780;28;20403;-87
2022/09/19 08:54:52;;;;;;;73.53;6.33;;;13.90;99.90;;;;;;5058916;28;20383;-85
2022/09/19 08:57:26;;;;;;;67.60;5.70;;;14.00;99.90;;;;;;5040846;28;20972;-86
2022/09/19 08:59:59;;;;;;;66.07;5.10;;;13.80;99.90;;;;;;5059011;28;20469;-86
2022/09/19 09:02:43;;;;;;;68.83;6.67;;;13.90;99.90;;;;;;5061188;28;20740;-86
2022/09/19 09:05:15;;;;;;;67.90;6.63;;;13.90;99.90;;;;;;5061342;28;20393;-87
2022/09/19 09:07:52;;;;;;;73.90;5.00;;;14.00;99.90;;;;;;5060987;28;20995;-87
2022/09/19 09:10:40;;;;;;;66.97;5.77;;;14.00;99.90;;;;;;5042691;28;20399;-86
2022/09/19 09:13:19;;;;;;;73.90;6.07;;;14.00;99.90;;;;;;5061443;28;20427;-86
2022/09/19 09:16:19;;;;;;;72.63;6.00;;;14.00;99.90;;;;;;5060754;28;20375;-86
2022/09/19 09:19:19;;;;;;;74.60;7.07;;;14.10;99.90;;;;;;5009241;28;20441;-86
2022/09/19 09:22:16;;;;;;;70.87;6.60;;;14.30;99.90;;;;;;5061346;28;20388;-86
2022/09/19 09:24:45;;;;;;;72.77;5.80;;;14.60;99.90;;;;;;5061322;28;20411;-86
2022/09/19 09:27:20;;;;;;;73.23;5.10;;;14.70;99.90;;;;;;5060521;28;20442;-85
2022/09/19 09:29:58;;;;;;;69.53;5.30;;;14.70;99.90;;;;;;5061012;28;20413;-86
2022/09/19 09:32:34;;;;;;;67.47;6.40;;;14.80;99.90;;;;;;5042646;28;20443;-86
2022/09/19 09:35:09;;;;;;;68.33;5.00;;;14.70;99.90;;;;;;5060653;28;20482;-86
2022/09/19 09:37:40;;;;;;;72.50;5.10;;;14.70;99.90;;;;;;5061088;28;20763;-86
2022/09/19 09:43:28;;;;;;;69.50;4.77;;;15.20;99.90;;;;;;5061104;28;20382;-86
2022/09/19 09:45:54;;;;;;;67.13;5.23;;;15.30;99.90;;;;;;5060332;28;20435;-86
2022/09/19 09:48:33;;;;;;;76.70;6.40;;;15.40;99.90;;;;;;5042196;28;20435;-86
2022/09/19 09:51:29;;;;;;;70.87;4.67;;;15.50;99.90;;;;;;5061298;28;20453;-86
2022/09/19 09:57:32;;;;;;;67.70;4.57;;;15.60;99.90;;;;;;5061417;28;20435;-86
2022/09/19 10:03:35;;;;;;;69.67;4.10;;;15.90;99.90;;;;;;5059544;28;20441;-86
2022/09/19 10:06:14;;;;;;;69.33;3.90;;;15.90;99.90;;;;;;5060158;28;20396;-87
2022/09/19 10:09:18;;;;;;;78.17;4.60;;;15.90;99.90;;;;;;5042266;28;20437;-86
2022/09/19 10:12:13;;;;;;;69.90;4.30;;;16.00;99.90;;;;;;5031805;28;20409;-86
2022/09/19 10:14:39;;;;;;;69.57;4.40;;;16.20;99.90;;;;;;5059462;28;20377;-86
2022/09/19 10:17:06;;;;;;;67.90;4.23;;;16.30;99.90;;;;;;5058697;28;20395;-86
2022/09/19 10:19:45;;;;;;;70.57;5.57;;;16.30;99.70;;;;;;5059268;28;20171;-87
2022/09/19 10:22:16;;;;;;;68.10;6.00;;;16.30;99.90;;;;;;5041124;28;20404;-87
2022/09/19 10:24:42;;;;;;;68.40;5.90;;;16.10;99.70;;;;;;5059393;28;20384;-86
2022/09/19 10:27:11;;;;;;;73.43;5.93;;;16.10;99.90;;;;;;5042092;28;20420;-86
2022/09/19 10:29:50;;;;;;;72.43;7.50;;;16.30;99.90;;;;;;5059691;28;20575;-86
2022/09/19 10:32:17;;;;;;;71.00;7.20;;;16.40;98.20;;;;;;5060207;28;20399;-86
2022/09/19 10:34:44;;;;;;;72.63;6.97;;;16.50;98.50;;;;;;5059625;28;20400;-86
2022/09/19 10:37:14;;;;;;;70.57;6.97;;;16.50;98.50;;;;;;5042594;28;20801;-87
2022/09/19 10:39:44;;;;;;;69.17;6.70;;;16.40;99.80;;;;;;5059700;28;20406;-86
2022/09/19 10:42:30;;;;;;;73.77;8.07;;;16.50;99.90;;;;;;5041607;28;20477;-86
2022/09/19 10:44:59;;;;;;;68.43;5.07;;;16.80;99.90;;;;;;5060060;28;20410;-86
2022/09/19 10:47:28;;;;;;;69.93;5.90;;;17.00;94.80;;;;;;5058171;28;20418;-86
2022/09/19 10:50:00;;;;;;;72.50;6.50;;;17.20;93.70;;;;;;5112308;22;20490;-85
2022/09/19 10:52:33;;;;;;;70.80;5.57;;;17.40;92.00;;;;;;5059141;28;20465;-85
2022/09/19 10:55:09;;;;;;;68.07;4.80;;;17.60;78.90;;;;;;5058434;28;20411;-85
2022/09/19 10:57:45;;;;;;;67.90;4.23;;;17.60;60.00;;;;;;5058072;28;20429;-85
2022/09/19 11:00:25;;;;;;;67.80;5.10;;;17.50;65.00;;;;;;5058648;28;20423;-85
2022/09/19 11:03:16;;;;;;;69.10;4.43;;;17.50;73.10;;;;;;5058428;28;20383;-85
2022/09/19 11:05:42;;;;;;;73.67;4.40;;;17.50;66.90;;;;;;5056583;28;20394;-85
2022/09/19 11:08:27;;;;;;;75.40;11.30;;;17.70;74.30;;;;;;5056030;28;20453;-85
2022/09/19 11:10:53;;;;;;;68.87;4.33;;;17.90;57.90;;;;;;5056801;28;20842;-85
2022/09/19 11:13:26;;;;;;;65.87;4.27;;;18.10;59.70;;;;;;5057504;28;20446;-85
2022/09/19 11:16:05;;;;;;;67.07;5.67;;;18.10;57.00;;;;;;5058370;28;20414;-85
2022/09/19 11:19:03;;;;;;;67.80;4.83;;;18.10;49.40;;;;;;5056882;28;20429;-85
2022/09/19 11:21:38;;;;;;;68.60;5.53;;;18.20;47.20;;;;;;5056735;28;20798;-85
2022/09/19 11:24:42;;;;;;;68.97;4.80;;;18.40;48.70;;;;;;5055982;28;20441;-85
2022/09/19 11:27:17;;;;;;;69.00;3.83;;;18.40;31.40;;;;;;5055802;28;20418;-85
2022/09/19 11:30:11;;;;;;;68.50;3.33;;;18.50;23.40;;;;;;5056015;28;20399;-85
2022/09/19 11:32:44;;;;;;;68.80;3.73;;;18.60;11.70;;;;;;5057365;28;20466;-85
2022/09/19 11:35:19;;;;;;;67.10;3.13;;;18.50;17.00;;;;;;5056530;28;20399;-85
2022/09/19 11:38:15;;;;;;;66.07;2.70;;;18.80;14.30;;;;;;5057028;28;20418;-85
2022/09/19 11:40:47;;;;;;;73.57;4.10;;;18.80;8.50;;;;;;5056785;28;20429;-86
2022/09/19 11:44:08;;;;;;;67.87;3.77;;;18.50;4.00;;;;;;5058573;28;20887;-85
2022/09/19 11:47:06;;;;;;;66.97;2.80;;;18.20;1.00;;;;;;5014946;28;20792;-85
2022/09/19 11:49:38;;;;;;;70.20;2.83;;;18.10;13.70;;;;;;5071899;28;20438;-85
2022/09/19 11:52:26;;;;;;;74.23;10.03;;;18.50;17.20;;;;;;5059181;28;20414;-84
2022/09/19 11:55:46;;;;;;;68.33;7.57;;;18.70;1.00;;;;;;5064846;28;20387;-84
2022/09/19 11:58:21;;;;;;;71.43;6.67;;;18.80;1.00;;;;;;5030129;28;20802;-84
2022/09/19 12:01:07;;;;;;;71.00;5.40;;;18.70;1.00;;;;;;5063471;28;20403;-84
2022/09/19 12:04:23;;;;;;;70.87;7.67;;;18.90;1.00;;;;;;5063412;28;20395;-85
2022/09/19 12:07:21;;;;;;;72.07;10.30;;;19.10;1.00;;;;;;5064623;28;20941;-84
2022/09/19 12:09:55;;;;;;;72.10;11.43;;;19.20;1.00;;;;;;5065638;28;20407;-84
2022/09/19 12:12:26;;;;;;;73.00;10.23;;;19.00;1.00;;;;;;5066667;28;20809;-84
2022/09/19 12:15:03;;;;;;;74.37;9.67;;;18.90;1.00;;;;;;5066149;28;20380;-84
2022/09/19 12:17:38;;;;;;;73.97;10.50;;;19.00;1.00;;;;;;5065726;28;20418;-84
2022/09/19 12:20:30;;;;;;;71.70;8.47;;;19.10;1.00;;;;;;5066036;28;20425;-83
2022/09/19 12:26:01;;;;;;;72.43;11.07;;;19.20;1.00;;;;;;5066721;28;20463;-84
2022/09/19 12:28:33;;;;;;;72.37;10.90;;;19.40;1.00;;;;;;5065326;28;20427;-84
2022/09/19 12:31:03;;;;;;;70.60;11.90;;;19.50;1.00;;;;;;5066120;28;20455;-84
2022/09/19 12:33:56;;;;;;;74.47;13.77;;;19.60;1.00;;;;;;5065441;28;20949;-84
2022/09/19 12:36:36;;;;;;;69.77;5.80;;;19.70;1.00;;;;;;5066158;28;20383;-84
2022/09/19 12:39:09;;;;;;;69.60;5.50;;;19.90;1.00;;;;;;5066031;28;20487;-84
2022/09/19 12:41:49;;;;;;;68.87;3.47;;;20.10;1.00;;;;;;5064551;28;20491;-83
2022/09/19 12:44:56;;;;;;;66.27;3.30;;;19.90;1.00;;;;;;5066168;28;20398;-84
2022/09/19 12:47:41;;;;;;;72.97;3.83;;;19.50;1.00;;;;;;5065235;28;20427;-84
2022/09/19 12:50:22;;;;;;;68.87;4.20;;;19.20;1.00;;;;;;5065447;28;20422;-84
2022/09/19 12:53:14;;;;;;;70.10;9.70;;;18.90;1.00;;;;;;5064863;28;20435;-83
2022/09/19 12:55:59;;;;;;;67.90;8.20;;;18.50;1.00;;;;;;5063858;28;20496;-84
2022/09/19 12:58:43;;;;;;;68.57;4.30;;;17.60;15.10;;;;;;5063539;28;20430;-84
2022/09/19 13:01:23;;;;;;;67.70;3.17;;;16.80;34.30;;;;;;5065937;28;20383;-84
2022/09/19 13:04:31;;;;;;;67.57;3.40;;;16.20;57.30;;;;;;5063840;28;20490;-84
2022/09/19 13:07:15;;;;;;;66.33;5.17;;;15.90;71.70;;;;;;5058395;28;20411;-84
2022/09/19 13:09:44;;;;;;;67.10;9.17;;;15.50;81.00;;;;;;5066216;28;20893;-84
2022/09/19 13:12:26;;;;;;;66.07;8.90;;;15.20;93.60;;;;;;5066919;28;20420;-84
2022/09/19 13:15:02;;;;;;;66.20;6.60;;;15.00;99.90;;;;;;5066543;28;20413;-84
2022/09/19 13:25:53;;;;;;;65.90;4.10;;;14.90;99.90;;;;;;5066289;28;20403;-84
2022/09/19 13:28:19;;;;;;;72.13;4.10;;;14.90;99.90;;;;;;5065971;28;20442;-84
2022/09/19 13:30:48;;;;;;;66.17;3.73;;;15.00;99.90;;;;;;5066667;28;20425;-84
2022/09/19 13:33:48;;;;;;;70.00;3.97;;;15.00;99.90;;;;;;5066920;28;20451;-84
2022/09/19 13:36:34;;;;;;;67.50;5.60;;;15.10;99.90;;;;;;5066621;28;20411;-84
2022/09/19 13:38:59;;;;;;;65.60;3.73;;;15.10;99.90;;;;;;5059481;28;20428;-84